sensor_id;sensor_type;location;lat;lon;timestamp;pressure;altitude;pressure_sealevel;temperature;humidity
72857;BME280;62742;52.136;4.500;2023-06-10T00:00:09;101546.88;;;20.96;56.61
72857;BME280;62742;52.136;4.500;2023-06-10T00:02:47;101546.50;;;20.86;57.53
72857;BME280;62742;52.136;4.500;2023-06-10T00:05:18;101540.81;;;20.92;57.48
72857;BME280;62742;52.136;4.500;2023-06-10T00:07:48;101540.56;;;20.98;56.41
72857;BME280;62742;52.136;4.500;2023-06-10T00:10:21;101550.94;;;20.85;57.89
72857;BME280;62742;52.136;4.500;2023-06-10T00:12:48;101543.50;;;20.92;57.66
72857;BME280;62742;52.136;4.500;2023-06-10T00:15:14;101549.81;;;20.72;57.53
72857;BME280;62742;52.136;4.500;2023-06-10T00:17:40;101549.06;;;20.68;57.70
72857;BME280;62742;52.136;4.500;2023-06-10T00:20:07;101549.81;;;20.72;56.92
72857;BME280;62742;52.136;4.500;2023-06-10T00:22:36;101548.78;;;20.74;57.31
72857;BME280;62742;52.136;4.500;2023-06-10T00:25:04;101544.34;;;20.54;58.30
72857;BME280;62742;52.136;4.500;2023-06-10T00:27:36;101547.47;;;20.64;58.77
72857;BME280;62742;52.136;4.500;2023-06-10T00:30:03;101542.50;;;20.57;58.97
72857;BME280;62742;52.136;4.500;2023-06-10T00:32:35;101547.06;;;20.53;58.54
72857;BME280;62742;52.136;4.500;2023-06-10T00:35:06;101547.31;;;20.48;58.13
72857;BME280;62742;52.136;4.500;2023-06-10T00:37:34;101549.09;;;20.48;58.08
72857;BME280;62742;52.136;4.500;2023-06-10T00:40:06;101544.56;;;20.50;57.95
72857;BME280;62742;52.136;4.500;2023-06-10T00:42:36;101549.38;;;20.62;57.81
72857;BME280;62742;52.136;4.500;2023-06-10T00:45:03;101540.41;;;20.43;57.58
72857;BME280;62742;52.136;4.500;2023-06-10T00:47:30;101545.94;;;20.40;57.86
72857;BME280;62742;52.136;4.500;2023-06-10T00:49:57;101545.94;;;20.40;58.18
72857;BME280;62742;52.136;4.500;2023-06-10T00:52:24;101542.22;;;20.23;58.18
72857;BME280;62742;52.136;4.500;2023-06-10T00:54:54;101546.03;;;20.17;58.27
72857;BME280;62742;52.136;4.500;2023-06-10T00:57:20;101549.69;;;20.15;58.47
72857;BME280;62742;52.136;4.500;2023-06-10T00:59:47;101541.97;;;20.09;59.30
72857;BME280;62742;52.136;4.500;2023-06-10T01:02:15;101549.75;;;20.13;58.97
72857;BME280;62742;52.136;4.500;2023-06-10T01:04:41;101553.44;;;20.11;58.40
72857;BME280;62742;52.136;4.500;2023-06-10T01:10:01;101544.91;;;20.03;58.93
72857;BME280;62742;52.136;4.500;2023-06-10T01:12:36;101543.03;;;20.05;58.78
72857;BME280;62742;52.136;4.500;2023-06-10T01:15:17;101543.31;;;19.98;58.54
72857;BME280;62742;52.136;4.500;2023-06-10T01:17:57;101539.97;;;19.93;58.85
72857;BME280;62742;52.136;4.500;2023-06-10T01:20:24;101546.16;;;19.94;59.63
72857;BME280;62742;52.136;4.500;2023-06-10T01:22:55;101546.28;;;19.91;59.26
72857;BME280;62742;52.136;4.500;2023-06-10T01:25:23;101551.97;;;20.04;58.06
72857;BME280;62742;52.136;4.500;2023-06-10T01:28:13;101544.47;;;19.91;59.47
72857;BME280;62742;52.136;4.500;2023-06-10T01:30:52;101557.56;;;19.97;58.31
72857;BME280;62742;52.136;4.500;2023-06-10T01:33:45;101550.91;;;19.87;58.98
72857;BME280;62742;52.136;4.500;2023-06-10T01:36:14;101553.09;;;19.77;58.91
72857;BME280;62742;52.136;4.500;2023-06-10T01:38:43;101551.03;;;19.62;59.53
72857;BME280;62742;52.136;4.500;2023-06-10T01:41:15;101553.22;;;19.74;58.55
72857;BME280;62742;52.136;4.500;2023-06-10T01:43:44;101552.31;;;19.74;59.04
72857;BME280;62742;52.136;4.500;2023-06-10T01:46:11;101548.56;;;19.57;59.74
72857;BME280;62742;52.136;4.500;2023-06-10T01:48:38;101545.91;;;19.57;59.75
72857;BME280;62742;52.136;4.500;2023-06-10T01:51:05;101546.91;;;19.77;58.28
72857;BME280;62742;52.136;4.500;2023-06-10T01:53:31;101543.84;;;19.64;58.04
72857;BME280;62742;52.136;4.500;2023-06-10T01:55:57;101547.56;;;19.60;58.31
72857;BME280;62742;52.136;4.500;2023-06-10T01:58:24;101543.06;;;19.40;58.67
72857;BME280;62742;52.136;4.500;2023-06-10T02:00:50;101549.19;;;19.42;59.98
72857;BME280;62742;52.136;4.500;2023-06-10T02:03:16;101548.53;;;19.37;60.18
72857;BME280;62742;52.136;4.500;2023-06-10T02:05:42;101544.94;;;19.38;59.64
72857;BME280;62742;52.136;4.500;2023-06-10T02:08:08;101550.16;;;19.19;60.69
72857;BME280;62742;52.136;4.500;2023-06-10T02:10:35;101559.50;;;19.29;58.86
72857;BME280;62742;52.136;4.500;2023-06-10T02:13:01;101549.78;;;19.28;60.57
72857;BME280;62742;52.136;4.500;2023-06-10T02:15:27;101548.22;;;19.22;59.10
72857;BME280;62742;52.136;4.500;2023-06-10T02:17:54;101548.00;;;19.29;58.00
72857;BME280;62742;52.136;4.500;2023-06-10T02:20:21;101561.63;;;19.21;60.53
72857;BME280;62742;52.136;4.500;2023-06-10T02:22:47;101559.63;;;19.26;58.83
72857;BME280;62742;52.136;4.500;2023-06-10T02:25:13;101565.81;;;19.27;58.12
72857;BME280;62742;52.136;4.500;2023-06-10T02:27:40;101561.00;;;19.14;58.16
72857;BME280;62742;52.136;4.500;2023-06-10T02:30:06;101559.28;;;19.13;58.66
72857;BME280;62742;52.136;4.500;2023-06-10T02:32:35;101568.28;;;19.09;58.75
72857;BME280;62742;52.136;4.500;2023-06-10T02:35:01;101558.31;;;19.14;57.73
72857;BME280;62742;52.136;4.500;2023-06-10T02:37:28;101569.31;;;19.06;59.29
72857;BME280;62742;52.136;4.500;2023-06-10T02:39:54;101566.13;;;18.97;57.44
72857;BME280;62742;52.136;4.500;2023-06-10T02:42:20;101568.38;;;18.84;58.79
72857;BME280;62742;52.136;4.500;2023-06-10T02:44:46;101571.72;;;18.89;58.75
72857;BME280;62742;52.136;4.500;2023-06-10T02:47:12;101561.59;;;18.75;58.43
72857;BME280;62742;52.136;4.500;2023-06-10T02:49:39;101567.28;;;18.90;58.07
72857;BME280;62742;52.136;4.500;2023-06-10T02:52:06;101565.44;;;18.92;58.15
72857;BME280;62742;52.136;4.500;2023-06-10T02:54:33;101560.72;;;18.75;59.68
72857;BME280;62742;52.136;4.500;2023-06-10T02:57:01;101568.53;;;18.79;58.49
72857;BME280;62742;52.136;4.500;2023-06-10T02:59:28;101564.06;;;18.80;58.26
72857;BME280;62742;52.136;4.500;2023-06-10T03:01:54;101565.09;;;18.77;58.78
72857;BME280;62742;52.136;4.500;2023-06-10T03:04:20;101563.16;;;18.82;58.15
72857;BME280;62742;52.136;4.500;2023-06-10T03:06:46;101570.22;;;18.58;58.50
72857;BME280;62742;52.136;4.500;2023-06-10T03:09:13;101559.69;;;18.55;59.49
72857;BME280;62742;52.136;4.500;2023-06-10T03:11:39;101563.28;;;18.78;58.36
72857;BME280;62742;52.136;4.500;2023-06-10T03:14:08;101563.44;;;18.73;59.23
72857;BME280;62742;52.136;4.500;2023-06-10T03:16:34;101557.84;;;18.57;60.09
72857;BME280;62742;52.136;4.500;2023-06-10T03:19:00;101563.22;;;18.56;60.22
72857;BME280;62742;52.136;4.500;2023-06-10T03:21:26;101564.13;;;18.55;60.02
72857;BME280;62742;52.136;4.500;2023-06-10T03:23:52;101561.28;;;18.36;59.71
72857;BME280;62742;52.136;4.500;2023-06-10T03:26:19;101556.66;;;18.41;60.02
72857;BME280;62742;52.136;4.500;2023-06-10T03:28:47;101561.53;;;18.29;61.75
72857;BME280;62742;52.136;4.500;2023-06-10T03:31:14;101572.19;;;18.29;60.59
72857;BME280;62742;52.136;4.500;2023-06-10T03:33:42;101571.06;;;18.35;60.82
72857;BME280;62742;52.136;4.500;2023-06-10T03:36:08;101573.28;;;18.22;62.05
72857;BME280;62742;52.136;4.500;2023-06-10T03:38:35;101575.53;;;18.35;61.17
72857;BME280;62742;52.136;4.500;2023-06-10T03:41:02;101574.19;;;18.23;61.25
72857;BME280;62742;52.136;4.500;2023-06-10T03:43:29;101581.41;;;18.19;61.19
72857;BME280;62742;52.136;4.500;2023-06-10T03:45:57;101587.25;;;18.29;60.73
72857;BME280;62742;52.136;4.500;2023-06-10T03:48:23;101579.81;;;18.13;61.19
72857;BME280;62742;52.136;4.500;2023-06-10T03:50:49;101587.84;;;18.12;62.25
72857;BME280;62742;52.136;4.500;2023-06-10T03:53:16;101591.91;;;18.47;59.91
72857;BME280;62742;52.136;4.500;2023-06-10T03:55:42;101590.06;;;18.49;60.38
72857;BME280;62742;52.136;4.500;2023-06-10T03:58:09;101592.47;;;18.32;60.74
72857;BME280;62742;52.136;4.500;2023-06-10T04:00:35;101591.88;;;18.24;61.98
72857;BME280;62742;52.136;4.500;2023-06-10T04:03:07;101587.34;;;18.26;60.46
72857;BME280;62742;52.136;4.500;2023-06-10T04:05:34;101591.59;;;18.31;62.25
72857;BME280;62742;52.136;4.500;2023-06-10T04:08:03;101596.22;;;18.26;60.67
72857;BME280;62742;52.136;4.500;2023-06-10T04:10:30;101591.41;;;18.36;61.06
72857;BME280;62742;52.136;4.500;2023-06-10T04:12:57;101596.31;;;18.48;60.80
72857;BME280;62742;52.136;4.500;2023-06-10T04:15:23;101593.66;;;18.23;62.96
72857;BME280;62742;52.136;4.500;2023-06-10T04:17:49;101590.66;;;18.32;61.91
72857;BME280;62742;52.136;4.500;2023-06-10T04:20:16;101597.28;;;18.21;61.91
72857;BME280;62742;52.136;4.500;2023-06-10T04:22:42;101603.41;;;18.24;62.51
72857;BME280;62742;52.136;4.500;2023-06-10T04:25:09;101601.31;;;18.32;62.49
72857;BME280;62742;52.136;4.500;2023-06-10T04:27:35;101606.81;;;18.28;62.69
72857;BME280;62742;52.136;4.500;2023-06-10T04:30:02;101612.66;;;18.38;62.05
72857;BME280;62742;52.136;4.500;2023-06-10T04:32:30;101614.81;;;18.28;61.90
72857;BME280;62742;52.136;4.500;2023-06-10T04:34:56;101614.38;;;18.64;61.28
72857;BME280;62742;52.136;4.500;2023-06-10T04:37:22;101615.72;;;18.52;62.20
72857;BME280;62742;52.136;4.500;2023-06-10T04:39:48;101622.13;;;18.46;62.24
72857;BME280;62742;52.136;4.500;2023-06-10T04:42:14;101621.69;;;18.59;62.10
72857;BME280;62742;52.136;4.500;2023-06-10T04:44:40;101620.16;;;18.52;63.35
72857;BME280;62742;52.136;4.500;2023-06-10T04:47:07;101609.88;;;18.66;61.99
72857;BME280;62742;52.136;4.500;2023-06-10T04:49:33;101621.22;;;18.71;62.08
72857;BME280;62742;52.136;4.500;2023-06-10T04:52:03;101621.44;;;18.65;62.80
72857;BME280;62742;52.136;4.500;2023-06-10T04:54:30;101624.94;;;18.67;62.92
72857;BME280;62742;52.136;4.500;2023-06-10T04:56:58;101623.47;;;18.82;63.14
72857;BME280;62742;52.136;4.500;2023-06-10T04:59:25;101618.19;;;18.80;63.24
72857;BME280;62742;52.136;4.500;2023-06-10T05:01:52;101622.97;;;18.96;62.52
72857;BME280;62742;52.136;4.500;2023-06-10T05:04:18;101626.69;;;19.15;61.96
72857;BME280;62742;52.136;4.500;2023-06-10T05:06:44;101623.69;;;19.23;61.62
72857;BME280;62742;52.136;4.500;2023-06-10T05:09:11;101624.84;;;19.39;61.63
72857;BME280;62742;52.136;4.500;2023-06-10T05:11:37;101626.13;;;19.75;60.11
72857;BME280;62742;52.136;4.500;2023-06-10T05:14:03;101623.34;;;19.98;58.89
72857;BME280;62742;52.136;4.500;2023-06-10T05:16:29;101616.31;;;20.37;58.24
72857;BME280;62742;52.136;4.500;2023-06-10T05:18:55;101615.00;;;20.87;57.46
72857;BME280;62742;52.136;4.500;2023-06-10T05:21:22;101614.22;;;20.85;56.40
72857;BME280;62742;52.136;4.500;2023-06-10T05:23:48;101618.66;;;21.60;56.12
72857;BME280;62742;52.136;4.500;2023-06-10T05:26:14;101610.50;;;22.16;54.45
72857;BME280;62742;52.136;4.500;2023-06-10T05:28:41;101612.00;;;22.04;52.52
72857;BME280;62742;52.136;4.500;2023-06-10T05:31:07;101617.34;;;22.72;52.21
72857;BME280;62742;52.136;4.500;2023-06-10T05:33:36;101613.00;;;23.03;51.98
72857;BME280;62742;52.136;4.500;2023-06-10T05:36:02;101615.09;;;23.14;51.32
72857;BME280;62742;52.136;4.500;2023-06-10T05:38:28;101616.56;;;23.36;51.22
72857;BME280;62742;52.136;4.500;2023-06-10T05:40:55;101618.56;;;23.32;50.87
72857;BME280;62742;52.136;4.500;2023-06-10T05:43:22;101614.66;;;23.38;51.26
72857;BME280;62742;52.136;4.500;2023-06-10T05:45:48;101620.28;;;23.33;50.93
72857;BME280;62742;52.136;4.500;2023-06-10T05:48:15;101621.47;;;23.59;51.04
72857;BME280;62742;52.136;4.500;2023-06-10T05:50:41;101621.91;;;23.98;50.19
72857;BME280;62742;52.136;4.500;2023-06-10T05:53:08;101620.19;;;24.41;48.66
72857;BME280;62742;52.136;4.500;2023-06-10T05:55:43;101613.66;;;24.31;48.10
72857;BME280;62742;52.136;4.500;2023-06-10T05:58:10;101625.63;;;24.25;47.71
72857;BME280;62742;52.136;4.500;2023-06-10T06:00:38;101627.72;;;24.20;47.99
72857;BME280;62742;52.136;4.500;2023-06-10T06:03:06;101630.56;;;23.73;49.60
72857;BME280;62742;52.136;4.500;2023-06-10T06:05:34;101623.06;;;24.24;47.43
72857;BME280;62742;52.136;4.500;2023-06-10T06:08:03;101627.03;;;24.17;48.82
72857;BME280;62742;52.136;4.500;2023-06-10T06:10:30;101627.84;;;24.19;49.54
72857;BME280;62742;52.136;4.500;2023-06-10T06:12:57;101621.72;;;24.89;47.11
72857;BME280;62742;52.136;4.500;2023-06-10T06:15:23;101631.69;;;25.15;47.92
72857;BME280;62742;52.136;4.500;2023-06-10T06:17:49;101626.44;;;24.99;48.35
72857;BME280;62742;52.136;4.500;2023-06-10T06:20:21;101619.84;;;24.91;47.75
72857;BME280;62742;52.136;4.500;2023-06-10T06:22:48;101627.31;;;24.71;47.19
72857;BME280;62742;52.136;4.500;2023-06-10T06:25:14;101622.81;;;24.57;47.76
72857;BME280;62742;52.136;4.500;2023-06-10T06:27:41;101632.69;;;25.69;45.99
72857;BME280;62742;52.136;4.500;2023-06-10T06:30:07;101625.16;;;24.48;47.84
72857;BME280;62742;52.136;4.500;2023-06-10T06:32:33;101613.66;;;24.31;47.53
72857;BME280;62742;52.136;4.500;2023-06-10T06:35:00;101622.63;;;25.45;46.86
72857;BME280;62742;52.136;4.500;2023-06-10T06:37:26;101625.53;;;25.42;44.88
72857;BME280;62742;52.136;4.500;2023-06-10T06:39:59;101629.97;;;25.14;46.24
72857;BME280;62742;52.136;4.500;2023-06-10T06:42:25;101626.53;;;24.83;47.90
72857;BME280;62742;52.136;4.500;2023-06-10T06:44:57;101631.28;;;25.36;46.51
72857;BME280;62742;52.136;4.500;2023-06-10T06:47:23;101626.91;;;25.06;45.98
72857;BME280;62742;52.136;4.500;2023-06-10T06:50:11;101635.44;;;25.27;46.18
72857;BME280;62742;52.136;4.500;2023-06-10T06:55:34;101632.53;;;26.50;45.09
72857;BME280;62742;52.136;4.500;2023-06-10T06:58:01;101631.56;;;26.39;43.80
72857;BME280;62742;52.136;4.500;2023-06-10T07:00:36;101630.50;;;26.16;44.62
72857;BME280;62742;52.136;4.500;2023-06-10T07:03:13;101638.16;;;26.35;45.02
72857;BME280;62742;52.136;4.500;2023-06-10T07:05:46;101635.16;;;26.39;44.09
72857;BME280;62742;52.136;4.500;2023-06-10T07:08:19;101632.66;;;26.36;41.96
72857;BME280;62742;52.136;4.500;2023-06-10T07:10:46;101634.81;;;26.82;43.66
72857;BME280;62742;52.136;4.500;2023-06-10T07:13:15;101632.66;;;27.37;41.85
72857;BME280;62742;52.136;4.500;2023-06-10T07:15:43;101629.03;;;27.13;41.09
72857;BME280;62742;52.136;4.500;2023-06-10T07:18:16;101639.50;;;27.54;41.49
72857;BME280;62742;52.136;4.500;2023-06-10T07:20:46;101638.09;;;27.73;41.52
72857;BME280;62742;52.136;4.500;2023-06-10T07:23:13;101636.78;;;27.78;41.80
72857;BME280;62742;52.136;4.500;2023-06-10T07:25:41;101634.03;;;27.06;40.76
72857;BME280;62742;52.136;4.500;2023-06-10T07:28:08;101631.06;;;27.59;43.43
72857;BME280;62742;52.136;4.500;2023-06-10T07:30:35;101640.28;;;27.06;43.49
72857;BME280;62742;52.136;4.500;2023-06-10T07:33:06;101632.47;;;27.15;43.37
72857;BME280;62742;52.136;4.500;2023-06-10T07:35:33;101641.41;;;26.65;43.93
72857;BME280;62742;52.136;4.500;2023-06-10T07:37:59;101633.00;;;27.20;44.64
72857;BME280;62742;52.136;4.500;2023-06-10T07:40:25;101631.22;;;27.08;44.09
72857;BME280;62742;52.136;4.500;2023-06-10T07:42:51;101642.47;;;26.63;43.55
72857;BME280;62742;52.136;4.500;2023-06-10T07:45:18;101625.97;;;27.78;43.32
72857;BME280;62742;52.136;4.500;2023-06-10T07:47:45;101633.50;;;27.38;41.65
72857;BME280;62742;52.136;4.500;2023-06-10T07:50:11;101636.84;;;27.04;43.62
72857;BME280;62742;52.136;4.500;2023-06-10T07:52:37;101640.59;;;27.02;43.08
72857;BME280;62742;52.136;4.500;2023-06-10T07:55:04;101630.59;;;26.78;41.88
72857;BME280;62742;52.136;4.500;2023-06-10T07:57:31;101633.84;;;26.83;41.76
72857;BME280;62742;52.136;4.500;2023-06-10T08:00:00;101636.56;;;26.71;42.19
72857;BME280;62742;52.136;4.500;2023-06-10T08:02:28;101639.56;;;26.66;43.04
72857;BME280;62742;52.136;4.500;2023-06-10T08:04:57;101635.34;;;26.49;43.65
72857;BME280;62742;52.136;4.500;2023-06-10T08:07:24;101631.22;;;27.08;42.21
72857;BME280;62742;52.136;4.500;2023-06-10T08:09:51;101635.47;;;26.86;43.59
72857;BME280;62742;52.136;4.500;2023-06-10T08:12:17;101633.50;;;27.38;44.56
72857;BME280;62742;52.136;4.500;2023-06-10T08:14:46;101638.63;;;27.17;43.65
72857;BME280;62742;52.136;4.500;2023-06-10T08:17:12;101634.09;;;27.54;42.46
72857;BME280;62742;52.136;4.500;2023-06-10T08:19:39;101635.50;;;28.53;43.38
72857;BME280;62742;52.136;4.500;2023-06-10T08:22:05;101643.41;;;27.50;44.13
72857;BME280;62742;52.136;4.500;2023-06-10T08:24:32;101643.97;;;27.42;43.58
72857;BME280;62742;52.136;4.500;2023-06-10T08:26:58;101635.63;;;27.94;44.05
72857;BME280;62742;52.136;4.500;2023-06-10T08:29:25;101638.00;;;27.50;41.32
72857;BME280;62742;52.136;4.500;2023-06-10T08:31:51;101638.84;;;27.99;43.11
72857;BME280;62742;52.136;4.500;2023-06-10T08:34:17;101641.09;;;27.81;42.80
72857;BME280;62742;52.136;4.500;2023-06-10T08:36:47;101642.38;;;27.64;43.24
72857;BME280;62742;52.136;4.500;2023-06-10T08:39:13;101636.81;;;28.14;42.48
72857;BME280;62742;52.136;4.500;2023-06-10T08:41:42;101639.06;;;27.96;40.62
72857;BME280;62742;52.136;4.500;2023-06-10T08:44:27;101641.97;;;28.17;42.19
72857;BME280;62742;52.136;4.500;2023-06-10T08:47:01;101633.94;;;28.51;42.30
72857;BME280;62742;52.136;4.500;2023-06-10T08:49:45;101632.25;;;28.14;39.85
72857;BME280;62742;52.136;4.500;2023-06-10T08:52:16;101638.91;;;27.86;41.85
72857;BME280;62742;52.136;4.500;2023-06-10T08:54:48;101630.72;;;28.46;42.34
72857;BME280;62742;52.136;4.500;2023-06-10T08:57:18;101640.16;;;28.29;40.03
72857;BME280;62742;52.136;4.500;2023-06-10T08:59:51;101637.63;;;28.95;40.79
72857;BME280;62742;52.136;4.500;2023-06-10T09:02:20;101635.53;;;29.10;39.80
72857;BME280;62742;52.136;4.500;2023-06-10T09:04:47;101638.63;;;28.83;39.52
72857;BME280;62742;52.136;4.500;2023-06-10T09:07:24;101644.09;;;29.49;41.09
72857;BME280;62742;52.136;4.500;2023-06-10T09:09:52;101645.34;;;29.45;40.37
72857;BME280;62742;52.136;4.500;2023-06-10T09:12:20;101635.00;;;29.39;39.98
72857;BME280;62742;52.136;4.500;2023-06-10T09:14:55;101640.53;;;28.35;40.29
72857;BME280;62742;52.136;4.500;2023-06-10T09:17:22;101624.66;;;28.42;40.40
72857;BME280;62742;52.136;4.500;2023-06-10T09:19:55;101645.13;;;29.03;40.54
72857;BME280;62742;52.136;4.500;2023-06-10T09:22:29;101643.28;;;29.58;40.39
72857;BME280;62742;52.136;4.500;2023-06-10T09:28:03;101649.66;;;29.80;40.40
72857;BME280;62742;52.136;4.500;2023-06-10T09:30:31;101636.19;;;30.53;37.29
72857;BME280;62742;52.136;4.500;2023-06-10T09:36:35;101648.03;;;30.31;39.38
72857;BME280;62742;52.136;4.500;2023-06-10T09:39:05;101640.47;;;30.55;39.53
72857;BME280;62742;52.136;4.500;2023-06-10T09:41:41;101633.22;;;30.87;35.24
72857;BME280;62742;52.136;4.500;2023-06-10T09:44:13;101638.81;;;30.64;38.13
72857;BME280;62742;52.136;4.500;2023-06-10T09:46:48;101637.81;;;30.96;36.05
72857;BME280;62742;52.136;4.500;2023-06-10T09:49:16;101636.84;;;30.76;38.05
72857;BME280;62742;52.136;4.500;2023-06-10T09:51:49;101634.28;;;30.01;37.69
72857;BME280;62742;52.136;4.500;2023-06-10T09:54:16;101633.47;;;30.53;39.48
72857;BME280;62742;52.136;4.500;2023-06-10T09:56:46;101636.38;;;30.61;39.00
72857;BME280;62742;52.136;4.500;2023-06-10T09:59:13;101643.91;;;30.88;38.56
72857;BME280;62742;52.136;4.500;2023-06-10T10:01:40;101639.44;;;30.77;36.70
72857;BME280;62742;52.136;4.500;2023-06-10T10:04:06;101643.69;;;30.18;36.82
72857;BME280;62742;52.136;4.500;2023-06-10T10:06:32;101634.47;;;30.83;38.91
72857;BME280;62742;52.136;4.500;2023-06-10T10:09:03;101636.63;;;30.89;36.73
72857;BME280;62742;52.136;4.500;2023-06-10T10:11:30;101636.19;;;30.53;37.90
72857;BME280;62742;52.136;4.500;2023-06-10T10:13:58;101633.69;;;30.61;36.43
72857;BME280;62742;52.136;4.500;2023-06-10T10:16:27;101633.69;;;30.61;37.96
72857;BME280;62742;52.136;4.500;2023-06-10T10:19:14;101623.41;;;30.74;38.05
72857;BME280;62742;52.136;4.500;2023-06-10T10:21:53;101629.41;;;30.37;36.35
72857;BME280;62742;52.136;4.500;2023-06-10T10:24:21;101623.09;;;30.58;36.83
72857;BME280;62742;52.136;4.500;2023-06-10T10:26:52;101626.47;;;31.31;36.07
72857;BME280;62742;52.136;4.500;2023-06-10T10:29:26;101623.56;;;31.04;36.93
72857;BME280;62742;52.136;4.500;2023-06-10T10:31:57;101623.38;;;31.56;36.27
72857;BME280;62742;52.136;4.500;2023-06-10T10:34:30;101623.03;;;31.39;36.67
72857;BME280;62742;52.136;4.500;2023-06-10T10:37:06;101619.28;;;31.21;36.77
72857;BME280;62742;52.136;4.500;2023-06-10T10:39:33;101619.63;;;31.37;36.59
72857;BME280;62742;52.136;4.500;2023-06-10T10:42:03;101615.56;;;31.02;36.19
72857;BME280;62742;52.136;4.500;2023-06-10T10:44:31;101620.50;;;31.86;37.13
72857;BME280;62742;52.136;4.500;2023-06-10T10:46:58;101611.19;;;31.99;35.25
72857;BME280;62742;52.136;4.500;2023-06-10T10:49:30;101619.50;;;32.17;34.23
72857;BME280;62742;52.136;4.500;2023-06-10T10:51:59;101617.66;;;31.78;36.15
72857;BME280;62742;52.136;4.500;2023-06-10T10:54:30;101608.47;;;32.66;35.61
72857;BME280;62742;52.136;4.500;2023-06-10T10:57:10;101614.50;;;32.12;34.11
72857;BME280;62742;52.136;4.500;2023-06-10T10:59:45;101610.59;;;32.72;34.68
72857;BME280;62742;52.136;4.500;2023-06-10T11:05:15;101607.91;;;32.05;33.53
72857;BME280;62742;52.136;4.500;2023-06-10T11:08:01;101600.31;;;32.66;32.81
72857;BME280;62742;52.136;4.500;2023-06-10T11:10:35;101609.94;;;31.83;34.09
72857;BME280;62742;52.136;4.500;2023-06-10T11:13:09;101600.53;;;32.82;34.31
72857;BME280;62742;52.136;4.500;2023-06-10T11:15:45;101596.50;;;33.32;33.52
72857;BME280;62742;52.136;4.500;2023-06-10T11:18:13;101602.75;;;33.60;33.34
72857;BME280;62742;52.136;4.500;2023-06-10T11:20:44;101599.84;;;32.33;32.43
72857;BME280;62742;52.136;4.500;2023-06-10T11:28:39;101587.06;;;32.43;33.49
72857;BME280;62742;52.136;4.500;2023-06-10T11:31:05;101584.44;;;32.61;33.06
72857;BME280;62742;52.136;4.500;2023-06-10T11:33:32;101581.09;;;32.57;32.79
72857;BME280;62742;52.136;4.500;2023-06-10T11:35:58;101580.00;;;32.50;33.24
72857;BME280;62742;52.136;4.500;2023-06-10T11:38:25;101578.66;;;32.27;34.83
72857;BME280;62742;52.136;4.500;2023-06-10T11:40:53;101579.59;;;31.78;32.60
72857;BME280;62742;52.136;4.500;2023-06-10T11:43:19;101574.34;;;32.34;34.53
72857;BME280;62742;52.136;4.500;2023-06-10T11:45:46;101573.66;;;32.59;31.03
72857;BME280;62742;52.136;4.500;2023-06-10T11:48:12;101575.41;;;32.88;32.09
72857;BME280;62742;52.136;4.500;2023-06-10T11:50:39;101570.91;;;32.32;32.75
72857;BME280;62742;52.136;4.500;2023-06-10T11:53:08;101574.25;;;32.53;32.38
72857;BME280;62742;52.136;4.500;2023-06-10T11:58:11;101571.13;;;32.48;31.94
72857;BME280;62742;52.136;4.500;2023-06-10T12:00:47;101567.69;;;32.56;32.63
72857;BME280;62742;52.136;4.500;2023-06-10T12:03:15;101564.94;;;32.56;33.99
72857;BME280;62742;52.136;4.500;2023-06-10T12:05:59;101571.69;;;32.61;31.96
72857;BME280;62742;52.136;4.500;2023-06-10T12:08:31;101574.59;;;33.06;32.86
72857;BME280;62742;52.136;4.500;2023-06-10T12:10:58;101554.78;;;32.01;32.36
72857;BME280;62742;52.136;4.500;2023-06-10T12:13:26;101562.50;;;32.62;32.15
72857;BME280;62742;52.136;4.500;2023-06-10T12:15:53;101561.31;;;32.93;31.96
72857;BME280;62742;52.136;4.500;2023-06-10T12:18:21;101558.97;;;33.26;31.76
72857;BME280;62742;52.136;4.500;2023-06-10T12:20:49;101565.66;;;33.49;30.33
72857;BME280;62742;52.136;4.500;2023-06-10T12:23:17;101564.91;;;32.93;31.67
72857;BME280;62742;52.136;4.500;2023-06-10T12:25:52;101560.84;;;32.42;30.33
72857;BME280;62742;52.136;4.500;2023-06-10T12:28:23;101556.59;;;32.57;30.49
72857;BME280;62742;52.136;4.500;2023-06-10T12:30:50;101554.81;;;33.04;32.60
72857;BME280;62742;52.136;4.500;2023-06-10T12:33:20;101546.38;;;33.87;33.63
72857;BME280;62742;52.136;4.500;2023-06-10T12:35:48;101547.25;;;33.51;28.89
72857;BME280;62742;52.136;4.500;2023-06-10T12:38:20;101552.16;;;33.12;29.03
72857;BME280;62742;52.136;4.500;2023-06-10T12:40:47;101556.66;;;33.03;30.78
72857;BME280;62742;52.136;4.500;2023-06-10T12:43:18;101547.97;;;32.44;31.52
72857;BME280;62742;52.136;4.500;2023-06-10T12:45:45;101559.38;;;33.03;31.42
72857;BME280;62742;52.136;4.500;2023-06-10T12:48:20;101553.19;;;33.11;32.18
72857;BME280;62742;52.136;4.500;2023-06-10T12:50:57;101553.63;;;33.06;31.02
72857;BME280;62742;52.136;4.500;2023-06-10T12:53:25;101561.34;;;33.11;30.11
72857;BME280;62742;52.136;4.500;2023-06-10T12:55:54;101547.75;;;32.83;32.87
72857;BME280;62742;52.136;4.500;2023-06-10T12:58:21;101551.41;;;33.38;32.58
72857;BME280;62742;52.136;4.500;2023-06-10T13:04:09;101544.75;;;32.49;30.46
72857;BME280;62742;52.136;4.500;2023-06-10T13:06:41;101541.63;;;32.81;31.61
72857;BME280;62742;52.136;4.500;2023-06-10T13:09:17;101544.34;;;32.81;30.06
72857;BME280;62742;52.136;4.500;2023-06-10T13:11:44;101541.22;;;33.22;30.27
72857;BME280;62742;52.136;4.500;2023-06-10T13:14:11;101535.78;;;32.76;28.81
72857;BME280;62742;52.136;4.500;2023-06-10T13:16:47;101536.44;;;32.50;29.28
72857;BME280;62742;52.136;4.500;2023-06-10T13:19:14;101533.13;;;32.56;30.25
72857;BME280;62742;52.136;4.500;2023-06-10T13:21:54;101534.38;;;32.72;30.55
72857;BME280;62742;52.136;4.500;2023-06-10T13:24:26;101533.13;;;32.84;29.66